KLAS - KTUS Flight Details

Departing

Arriving

KLAS - Las Vegas / McCarran Intl (2181' MSL)      (KZLA) - Los Angeles ARTCC

KTUS - Tucson Intl (2643' MSL)      (KZAB) - Albuquerque ARTCC

KLAS 180656Z 20009KT 10SM FEW250 16/M02 A2992 RMK AO2 SLP118 T01561017

KTUS 180653Z 00000KT 10SM CLR 16/M03 A2998 RMK AO2 SLP118 T01561033 402830144

Route Details

Alternate

High Altitude/RNAV

KPHX - Phoenix Sky Harbor Intl (1135' MSL)      (KZAB) - Albuquerque ARTCC

PRFUM2 DRK DRK J11 PXR PXR DINGO5

KPHX 180651Z 25008KT 10SM CLR 19/04 A2988 RMK AO2 SLP104 T01890044 402940133 $

Comments

User Defined Route

Aircraft Information

Aircraft Type:

Code: MD11

TAS:

Engine Type: Turbojet

Engines: 3

Weight Class: Heavy

TEC Class: J

 

Dispatch

 

NOTAMS

SWA553 on March 17, 2010 FL330

 

Navigation Log

Distance (NM)

Time (450 TAS)

IDENT

NAME

FREQ

VIA

CRS

LEG

REM

GONE

LEG

REM

ETE

KLAS

Las Vegas / Mccarran Intl

 

 

-

-

357

0

0:00

0:47

0:00

ROPPR

 

 

PRFUM2

228

10

347

10

0:01

0:46

0:01

CEASR

 

 

PRFUM2

163

7

340

17

0:00

0:45

0:02

HITME

 

 

PRFUM2

106

10

330

27

0:01

0:44

0:03

WINDS

 

 

PRFUM2

85

23

307

50

0:03

0:40

0:06

KADDY

 

 

PRFUM2

123

13

294

63

0:01

0:39

0:08

PRFUM

 

 

PRFUM2

123

26

268

89

0:03

0:35

0:11

DRK

Drake

114.10

PRFUM2

123

87

181

176

0:11

0:24

0:23

PXR

Phoenix

115.60

PRFUM2

161

80

101

256

0:10

0:13

0:34

TFD

Stanfield

114.80

 

175

33

68

289

0:04

0:09

0:38

BASER

 

 

 

145

24

44

313

0:03

0:05

0:41

DINGO

 

 

DINGO5

127

6

38

319

0:00

0:05

0:42

MAVVA

 

 

DINGO5

127

13

25

332

0:01

0:03

0:44

KTUS

Tucson Intl

 

DINGO5

126

25

0

357

0:03

0:00

0:47

AIRAC 0711 (OCT25/07-NOV22/07)